Jacksonville, Illinois
Current Conditions -  °F | °C
As of 10:15 PM on Sunday 25 Jan 2015 (Local Time) from KIJX Reporting Station
Broken Clouds Broken Clouds  
Wind Chill: 19°   Ceiling: 2100
Heat Index: 29°   Visibility: 10mi
Dew Point: 22°   Wind: 12mph
Humidity: 77%   Direction: 340°NNW
Pressure: 30.03"   Gusts: NA
Location:  39.75°N, 90.23°W
Report Text: KIJX 260415Z AUTO 34010KT 10SM BKN021 M02/M05 A3003 RMK AO2 T10171053
Loading
Personal Weather Stations






























Interactive Weather Map New forecast layout! Learn more

10-Day Weather Forecast

Advertisements
Track Severe Weather on mobile